Aeroporto :
LOGIN :

Iscrizione | Disclaimer

   EN    FR    IT 

 










Sommario :    VFR   VFR Marginale   IFR   IFR Intensivo   IFR Molto Intensivo
Visibilità : 
Base nubi : 
>= 8 km
>= 3000ft
5 / 8 km
1000 / 3000 ft
1500m / 5 km
500 / 1000 ft
800 / 1500m
200 / 500 ft
< 800m
< 200 ft
Simboli :   Temporali  Nebbia  Neve Forte  Precipitazioni Forti  Vento > 20 kt
SIGMETs :   Varie  Temporali  Ghiacco  Turbolenza  Onda orograficha  Ceneri Vulcaniche







- Altitudine del aeroporto : 49 ft
- Codice IATA : SEN
- Carte del aeroporto


EGMC - Southend

ULTIMO METAR :
  • 140620Z 27008KT 230V300 CAVOK 16/02 Q1014

METARs OBSOLETI :
  • 140550Z 27006KT CAVOK 14/10 Q1014
  • 140520Z 28004KT 250V320 CAVOK 14/11 Q1014
  • 140450Z 28006KT CAVOK 14/11 Q1013
  • 140420Z 28006KT CAVOK 14/11 Q1013

TAF TAF EGMC
Valido dal 14 a 06 ore il 14 a 15 ore UTC


140507Z 1406/1415 28008KT 9999 SCT035
Nessun NOTAM noto per questo aeroporto.



MetMap, La meteo Aeronautica in un colpo d'occhio ! - Copyright ORBIFLY Dicembre 2007 - Disclaimer

ORBIFLY MET'MAP TEAM :

Programmazione e sviluppo : Alexandra Zaïnal
Concezione e sviluppo : Baudouin d'Aumeries
Co-Programmazione e sviluppo : Marc-Olivier Méhu
Supporto tecnico e logistico : Manuel Goepfert
Aiuto per la traduzione : Arnaldo La Scala

Contatto : metmap@orbifly.com




FONTI E CREDITI :

   NOAA